createdAt,value
2023-01-17T00:10:58.755Z,15.30
2023-01-17T00:39:54.149Z,14.02
2023-01-17T00:42:39.677Z,14.13
2023-01-17T00:46:04.424Z,15.50
2023-01-17T00:49:16.356Z,13.88
2023-01-17T00:52:20.297Z,13.80
2023-01-17T00:55:25.103Z,12.95
2023-01-17T00:58:28.944Z,15.20
2023-01-17T01:01:33.236Z,12.45
2023-01-17T01:04:37.086Z,11.93
2023-01-17T01:07:41.283Z,13.73
2023-01-17T01:10:45.604Z,13.98
2023-01-17T01:13:50.500Z,14.83
2023-01-17T01:16:54.280Z,11.70
2023-01-17T01:19:58.325Z,12.38
2023-01-17T01:23:02.497Z,14.80
2023-01-17T01:26:06.599Z,13.48
2023-01-17T01:29:10.803Z,10.57
2023-01-17T01:32:14.872Z,13.45
2023-01-17T01:35:00.679Z,12.27
2023-01-17T01:37:46.638Z,11.38
2023-01-17T01:40:32.245Z,13.07
2023-01-17T01:43:20.516Z,10.10
2023-01-17T01:46:07.122Z,11.40
2023-01-17T01:48:57.822Z,11.23
2023-01-17T01:51:50.539Z,12.52
2023-01-17T01:54:42.202Z,11.77
2023-01-17T01:57:32.310Z,11.07
2023-01-17T02:00:24.949Z,11.95
2023-01-17T02:03:21.534Z,10.10
2023-01-17T02:06:33.154Z,11.18
2023-01-17T02:09:20.115Z,11.52
2023-01-17T02:12:06.344Z,11.97
2023-01-17T02:14:52.112Z,10.43
2023-01-17T02:17:43.313Z,10.13
2023-01-17T02:20:41.032Z,10.90
2023-01-17T02:23:45.551Z,11.60
2023-01-17T02:26:48.663Z,10.07
2023-01-17T02:29:56.111Z,12.23
2023-01-17T02:33:02.176Z,11.02
2023-01-17T02:36:18.321Z,10.65
2023-01-17T02:39:15.727Z,10.55
2023-01-17T02:42:06.593Z,9.63
2023-01-17T02:44:52.279Z,11.35
2023-01-17T02:47:38.031Z,11.55
2023-01-17T02:50:28.857Z,10.23
2023-01-17T02:53:31.144Z,10.15
2023-01-17T02:56:22.888Z,9.30
2023-01-17T02:59:32.785Z,9.73
2023-01-17T03:02:46.404Z,10.40
2023-01-17T03:05:41.577Z,9.40
2023-01-17T03:08:27.725Z,9.45
2023-01-17T03:11:14.400Z,10.40
2023-01-17T03:13:59.947Z,8.93
2023-01-17T03:16:46.090Z,9.63
2023-01-17T03:19:31.762Z,9.85
2023-01-17T03:22:17.668Z,8.20
2023-01-17T03:25:03.669Z,9.83
2023-01-17T03:27:49.411Z,10.05
2023-01-17T03:30:34.740Z,8.90
2023-01-17T03:33:20.351Z,9.70
2023-01-17T03:36:06.152Z,9.70
2023-01-17T03:38:51.788Z,9.20
2023-01-17T03:41:37.069Z,8.68
2023-01-17T03:44:22.638Z,10.02
2023-01-17T03:47:11.920Z,8.60
2023-01-17T03:49:57.285Z,8.75
2023-01-17T03:52:42.747Z,9.53
2023-01-17T03:55:28.300Z,9.43
2023-01-17T03:58:14.053Z,7.60
2023-01-17T04:00:59.873Z,8.25
2023-01-17T04:03:45.579Z,8.93
2023-01-17T04:06:31.258Z,10.50
2023-01-17T04:09:16.881Z,8.70
2023-01-17T04:12:03.333Z,8.90
2023-01-17T04:14:49.327Z,8.18
2023-01-17T04:17:34.633Z,8.40
2023-01-17T04:20:47.141Z,9.00
2023-01-17T04:23:33.409Z,9.77
2023-01-17T04:26:19.168Z,8.20
2023-01-17T04:29:04.448Z,8.50
2023-01-17T04:31:49.830Z,8.48
2023-01-17T04:34:35.553Z,8.77
2023-01-17T04:37:21.335Z,9.55
2023-01-17T04:40:07.382Z,8.55
2023-01-17T04:42:54.426Z,8.13
2023-01-17T04:45:39.994Z,7.38
2023-01-17T04:48:27.284Z,8.77
2023-01-17T04:51:12.764Z,8.23
2023-01-17T04:53:57.984Z,9.00
2023-01-17T04:56:44.205Z,8.30
2023-01-17T04:59:29.453Z,7.60
2023-01-17T05:02:15.148Z,8.20
2023-01-17T05:05:00.754Z,7.90
2023-01-17T05:07:53.826Z,7.53
2023-01-17T05:10:39.081Z,7.53
2023-01-17T05:13:24.821Z,8.25
2023-01-17T05:16:10.188Z,8.73
2023-01-17T05:18:56.300Z,8.00
2023-01-17T05:21:42.030Z,8.50
2023-01-17T05:24:27.564Z,7.55
2023-01-17T05:27:14.213Z,7.93
2023-01-17T05:29:59.900Z,7.27
2023-01-17T05:32:49.582Z,7.50
2023-01-17T05:35:35.100Z,7.95
2023-01-17T05:38:20.597Z,6.75
2023-01-17T05:41:06.306Z,7.57
2023-01-17T05:43:51.820Z,7.77
2023-01-17T05:46:37.141Z,6.63
2023-01-17T05:49:22.502Z,6.88
2023-01-17T05:52:07.829Z,7.50
2023-01-17T05:54:53.478Z,7.60
2023-01-17T05:57:39.023Z,7.30
2023-01-17T06:00:24.947Z,7.55
2023-01-17T06:03:11.482Z,6.93
2023-01-17T06:05:56.793Z,6.70
2023-01-17T06:08:42.256Z,7.88
2023-01-17T06:11:27.747Z,7.47
2023-01-17T06:14:13.172Z,7.47
2023-01-17T06:16:58.686Z,7.00
2023-01-17T06:19:44.049Z,7.72
2023-01-17T06:22:38.127Z,7.28
2023-01-17T06:25:26.231Z,7.57
2023-01-17T06:28:13.859Z,6.95
2023-01-17T06:31:00.101Z,6.32
2023-01-17T06:33:46.636Z,7.20
2023-01-17T06:36:33.445Z,7.28
2023-01-17T06:39:19.540Z,7.30
2023-01-17T06:42:05.184Z,6.97
2023-01-17T07:12:31.652Z,1.88
2023-01-17T07:15:19.252Z,2.35
2023-01-17T07:18:07.265Z,1.58
2023-01-17T07:20:53.771Z,1.20
2023-01-17T07:23:40.107Z,1.80
2023-01-17T07:26:26.289Z,1.83
2023-01-17T07:29:13.863Z,1.77
2023-01-17T07:32:00.491Z,5.10
2023-01-17T07:34:48.270Z,1.50
2023-01-17T07:37:34.525Z,4.27
2023-01-17T07:40:22.831Z,2.17
2023-01-17T07:43:16.901Z,3.08
2023-01-17T07:46:07.302Z,4.55
2023-01-17T07:48:53.587Z,2.20
2023-01-17T07:51:39.278Z,3.00
2023-01-17T07:54:24.788Z,2.95
2023-01-17T07:57:14.267Z,3.60
2023-01-17T08:00:00.152Z,2.33
2023-01-17T08:02:46.705Z,1.08
2023-01-17T08:05:32.832Z,3.60
2023-01-17T08:08:18.933Z,1.50
2023-01-17T08:11:04.809Z,1.20
2023-01-17T08:13:57.262Z,1.63
2023-01-17T08:16:43.083Z,1.52
2023-01-17T08:19:28.507Z,4.57
2023-01-17T08:22:14.005Z,1.95
2023-01-17T08:24:59.420Z,1.35
2023-01-17T08:27:44.945Z,2.97
2023-01-17T08:30:31.167Z,2.50
2023-01-17T08:33:16.457Z,4.00
2023-01-17T08:36:02.458Z,2.80
2023-01-17T08:38:52.725Z,1.88
2023-01-17T08:41:38.201Z,3.35
2023-01-17T08:44:23.536Z,1.38
2023-01-17T08:47:09.707Z,1.50
2023-01-17T08:49:55.091Z,1.05
2023-01-17T08:52:40.470Z,2.38
2023-01-17T08:55:26.473Z,2.33
2023-01-17T08:58:12.013Z,2.22
2023-01-17T09:01:06.168Z,2.50
2023-01-17T09:03:51.974Z,3.40
2023-01-17T09:06:39.891Z,2.92
2023-01-17T09:09:25.656Z,1.25
2023-01-17T09:12:11.756Z,0.95
2023-01-17T09:14:57.407Z,1.93
2023-01-17T09:17:42.844Z,1.80
2023-01-17T09:20:30.555Z,2.22
2023-01-17T09:23:16.230Z,1.50
2023-01-17T09:26:01.918Z,1.67
2023-01-17T09:28:49.160Z,1.00
2023-01-17T09:31:35.070Z,1.92
2023-01-17T09:34:22.997Z,1.52
2023-01-17T09:37:08.565Z,1.40
2023-01-17T09:39:55.324Z,2.60
2023-01-17T09:42:41.603Z,0.87
2023-01-17T09:45:31.981Z,2.10
2023-01-17T09:48:44.727Z,0.82
2023-01-17T09:51:31.037Z,0.90
2023-01-17T09:54:32.775Z,3.30
2023-01-17T09:57:18.690Z,1.30
2023-01-17T10:00:32.384Z,1.77
2023-01-17T10:03:42.009Z,1.08
2023-01-17T10:06:42.106Z,1.00
2023-01-17T10:09:49.224Z,1.05
2023-01-17T10:12:56.385Z,1.80
2023-01-17T10:15:41.852Z,0.98
2023-01-17T10:18:51.563Z,1.27
2023-01-17T10:22:02.557Z,1.38
2023-01-17T10:25:04.851Z,1.58
2023-01-17T10:27:58.999Z,1.07
2023-01-17T10:30:54.570Z,1.23
2023-01-17T10:33:53.738Z,1.20
2023-01-17T10:36:43.244Z,1.00
2023-01-17T10:39:30.730Z,2.28
2023-01-17T10:42:47.107Z,1.23
2023-01-17T10:45:41.577Z,0.75
2023-01-17T10:48:35.241Z,1.58
2023-01-17T10:51:43.936Z,1.92
2023-01-17T10:55:05.010Z,1.50
2023-01-17T10:57:51.427Z,1.73
2023-01-17T11:01:00.166Z,1.10
2023-01-17T11:03:55.428Z,1.55
2023-01-17T11:06:57.338Z,0.75
2023-01-17T11:09:53.075Z,1.02
2023-01-17T11:12:46.359Z,1.40
2023-01-17T11:15:34.853Z,1.33
2023-01-17T11:18:23.213Z,1.35
2023-01-17T11:21:13.443Z,1.20
2023-01-17T11:24:11.469Z,2.40
2023-01-17T11:26:59.664Z,1.10
2023-01-17T11:29:51.182Z,1.45
2023-01-17T11:32:56.562Z,1.00
2023-01-17T11:35:45.865Z,1.40
2023-01-17T11:38:32.083Z,0.98
2023-01-17T11:41:22.927Z,1.23
2023-01-17T11:44:29.020Z,1.10
2023-01-17T11:47:20.441Z,1.15
2023-01-17T11:50:24.121Z,1.73
2023-01-17T11:53:12.641Z,1.02
2023-01-17T11:56:06.574Z,0.90
2023-01-17T11:59:16.536Z,0.95
2023-01-17T12:02:24.260Z,1.13
2023-01-17T12:05:15.814Z,1.20
2023-01-17T12:08:29.109Z,1.42
2023-01-17T12:11:28.180Z,1.20
2023-01-17T12:14:36.550Z,1.45
2023-01-17T12:17:31.188Z,1.63
2023-01-17T12:20:48.133Z,1.42
2023-01-17T12:24:13.200Z,1.52
2023-01-17T12:27:23.575Z,2.20
2023-01-17T12:30:20.455Z,1.10
2023-01-17T12:33:43.860Z,1.30
2023-01-17T12:36:49.346Z,0.95
2023-01-17T12:39:51.014Z,1.92
2023-01-17T12:42:44.386Z,1.27
2023-01-17T12:45:52.644Z,1.33
2023-01-17T12:48:45.174Z,1.55
2023-01-17T12:51:38.295Z,0.85
2023-01-17T12:54:34.591Z,1.42
2023-01-17T12:57:28.537Z,1.10
2023-01-17T13:00:28.033Z,2.00
2023-01-17T13:04:57.670Z,2.45
2023-01-17T13:08:04.861Z,1.30
2023-01-17T13:11:10.813Z,2.03
2023-01-17T13:14:00.124Z,2.13
2023-01-17T13:16:59.452Z,1.38
2023-01-17T13:20:10.755Z,1.33
2023-01-17T13:23:16.735Z,1.27
2023-01-17T13:26:08.467Z,1.27
2023-01-17T13:29:19.718Z,2.60
2023-01-17T13:32:23.863Z,1.33
2023-01-17T13:35:19.415Z,1.92
2023-01-17T13:38:32.821Z,0.82
2023-01-17T13:41:33.330Z,2.05
2023-01-17T13:44:25.318Z,1.80
2023-01-17T13:47:18.362Z,1.88
2023-01-17T13:50:06.720Z,1.73
2023-01-17T13:52:58.322Z,3.15
2023-01-17T13:55:51.131Z,2.65
2023-01-17T13:58:54.919Z,1.57
2023-01-17T14:01:45.287Z,2.17
2023-01-17T14:05:39.831Z,1.95
2023-01-17T14:08:32.431Z,3.03
2023-01-17T14:11:26.820Z,1.40
2023-01-17T14:14:42.433Z,1.53
2023-01-17T14:17:46.619Z,3.00
2023-01-17T14:24:10.005Z,1.73
2023-01-17T14:27:40.968Z,3.72
2023-01-17T14:30:38.094Z,2.65
2023-01-17T14:33:55.964Z,2.60
2023-01-17T14:36:42.295Z,1.25
2023-01-17T14:39:28.552Z,1.77
2023-01-17T14:42:19.845Z,2.83
2023-01-17T14:45:09.426Z,1.20
2023-01-17T14:47:58.765Z,0.95
2023-01-17T14:50:47.621Z,2.85
2023-01-17T14:53:37.311Z,1.57
2023-01-17T14:56:30.461Z,1.55
2023-01-17T14:59:28.106Z,1.30
2023-01-17T15:02:19.849Z,1.75
2023-01-17T15:05:22.570Z,1.23
2023-01-17T15:08:33.494Z,1.83
2023-01-17T15:16:07.064Z,2.58
2023-01-17T15:28:36.916Z,13.15
2023-01-17T15:31:25.755Z,16.10
2023-01-17T15:34:32.596Z,15.20
2023-01-17T15:37:32.453Z,15.23
2023-01-17T15:40:20.701Z,15.97
2023-01-17T15:43:06.515Z,15.05
2023-01-17T15:45:56.915Z,13.77
2023-01-17T15:48:44.434Z,14.85
2023-01-17T15:51:37.062Z,15.25
2023-01-17T15:54:28.478Z,14.43
2023-01-17T15:57:44.099Z,16.52
2023-01-17T16:00:37.269Z,13.95
2023-01-17T16:03:30.999Z,14.18
2023-01-17T16:06:30.362Z,13.13
2023-01-17T16:09:23.651Z,13.87
2023-01-17T16:12:09.028Z,13.38
2023-01-17T16:15:11.280Z,12.75
2023-01-17T16:18:15.970Z,13.60
2023-01-17T16:21:24.457Z,13.30
2023-01-17T16:24:10.932Z,13.47
2023-01-17T16:26:57.497Z,13.98
2023-01-17T16:29:43.085Z,13.48
2023-01-17T16:32:28.340Z,12.73
2023-01-17T16:35:21.742Z,13.18
2023-01-17T16:38:10.781Z,12.90
2023-01-17T16:40:55.712Z,11.65
2023-01-17T16:43:40.997Z,12.07
2023-01-17T16:46:26.920Z,11.02
2023-01-17T16:49:12.274Z,10.82
2023-01-17T16:51:57.843Z,10.67
2023-01-17T16:54:43.116Z,9.93
2023-01-17T16:57:28.620Z,9.50
2023-01-17T17:00:14.505Z,10.27
2023-01-17T17:02:59.726Z,8.60
2023-01-17T17:05:53.751Z,8.17
2023-01-17T17:13:17.373Z,8.05
2023-01-17T17:21:36.266Z,9.05
2023-01-17T17:30:30.502Z,8.90
2023-01-17T17:33:15.758Z,7.40
2023-01-17T17:36:11.254Z,7.63
2023-01-17T17:38:57.968Z,7.18
2023-01-17T17:41:45.642Z,8.60
2023-01-17T17:44:30.851Z,7.57
2023-01-17T17:47:16.413Z,6.78
2023-01-17T17:50:01.811Z,7.68
2023-01-17T17:52:48.292Z,7.63
2023-01-17T17:55:35.094Z,5.50
2023-01-17T17:58:21.639Z,6.15
2023-01-17T18:01:07.330Z,7.25
2023-01-17T18:03:54.305Z,6.57
2023-01-17T18:06:40.052Z,6.38
2023-01-17T18:09:25.340Z,5.80
2023-01-17T18:12:10.736Z,6.32
2023-01-17T18:14:56.019Z,7.82
2023-01-17T18:17:41.168Z,8.75
2023-01-17T18:20:26.658Z,5.32
2023-01-17T18:23:12.087Z,6.47
2023-01-17T18:25:57.113Z,6.43
2023-01-17T18:28:42.523Z,8.27
2023-01-17T18:31:29.206Z,6.03
2023-01-17T18:34:17.440Z,10.23
2023-01-17T18:37:02.820Z,8.10
2023-01-17T18:39:48.041Z,6.32
2023-01-17T18:42:33.795Z,7.10
2023-01-17T18:45:19.136Z,5.43
2023-01-17T18:48:04.937Z,7.93
2023-01-17T18:51:08.057Z,6.73
2023-01-17T18:53:53.987Z,9.07
2023-01-17T18:56:39.105Z,7.72
2023-01-17T18:59:25.687Z,10.18
2023-01-17T19:02:10.774Z,7.00
2023-01-17T19:04:55.841Z,7.03
2023-01-17T19:07:40.814Z,6.70
2023-01-17T19:10:26.239Z,7.60
2023-01-17T19:13:11.415Z,8.63
2023-01-17T19:15:59.865Z,8.73
2023-01-17T19:18:45.843Z,7.73
2023-01-17T19:21:30.903Z,11.20
2023-01-17T19:24:16.132Z,8.45
2023-01-17T19:27:02.615Z,7.40
2023-01-17T19:29:47.858Z,7.15
2023-01-17T19:32:33.427Z,7.90
2023-01-17T19:35:21.251Z,9.05
2023-01-17T19:38:07.766Z,7.65
2023-01-17T19:40:52.829Z,7.75
2023-01-17T19:43:39.377Z,9.48
2023-01-17T19:46:27.199Z,8.80
2023-01-17T19:49:12.857Z,9.40
2023-01-17T19:51:58.135Z,9.85
2023-01-17T19:54:46.012Z,8.63
2023-01-17T19:57:35.171Z,13.95
2023-01-17T20:00:29.934Z,9.93
2023-01-17T20:03:15.521Z,10.00
2023-01-17T20:06:00.830Z,7.93
2023-01-17T20:08:46.480Z,8.90
2023-01-17T20:11:32.026Z,9.63
2023-01-17T20:14:17.531Z,8.07
2023-01-17T20:17:03.533Z,7.60
2023-01-17T20:19:49.060Z,11.27
2023-01-17T20:22:34.443Z,10.10
2023-01-17T20:25:19.280Z,13.55
2023-01-17T20:28:04.893Z,9.33
2023-01-17T20:30:50.130Z,15.55
2023-01-17T20:33:36.607Z,11.98
2023-01-17T20:36:24.454Z,9.77
2023-01-17T20:39:12.453Z,9.05
2023-01-17T20:41:57.695Z,10.07
2023-01-17T20:44:43.017Z,9.93
2023-01-17T20:47:29.673Z,10.32
2023-01-17T20:50:15.557Z,7.43
2023-01-17T20:53:01.196Z,10.50
2023-01-17T20:55:48.380Z,10.93
2023-01-17T20:58:34.401Z,9.88
2023-01-17T21:01:21.317Z,10.27
2023-01-17T21:04:10.019Z,11.35
2023-01-17T21:06:56.321Z,13.80
2023-01-17T21:09:44.240Z,7.63
2023-01-17T21:12:31.077Z,8.52
2023-01-17T21:15:17.371Z,9.27
2023-01-17T21:18:02.428Z,8.25
2023-01-17T21:20:47.779Z,7.80
2023-01-17T21:23:38.144Z,7.40
2023-01-17T21:26:27.595Z,9.15
2023-01-17T21:29:15.924Z,9.88
2023-01-17T21:32:01.636Z,7.40
2023-01-17T21:34:52.207Z,8.93
2023-01-17T21:37:38.131Z,8.30
2023-01-17T21:40:23.337Z,7.32
2023-01-17T21:43:09.700Z,7.95
2023-01-17T21:45:55.377Z,8.52
2023-01-17T21:48:40.648Z,7.50
2023-01-17T21:51:46.283Z,9.70
2023-01-17T21:55:22.369Z,8.60
2023-01-17T21:58:34.964Z,6.90
2023-01-17T22:01:25.844Z,8.05
2023-01-17T22:04:12.615Z,7.05
2023-01-17T22:06:58.550Z,6.33
2023-01-17T22:09:44.008Z,6.97
2023-01-17T22:12:29.434Z,9.07
2023-01-17T22:15:14.613Z,6.82
2023-01-17T22:18:00.028Z,6.82
2023-01-17T22:20:45.567Z,7.30
2023-01-17T22:23:31.168Z,7.13
2023-01-17T22:26:17.317Z,7.55
2023-01-17T22:29:03.593Z,6.53
2023-01-17T22:31:49.177Z,7.35
2023-01-17T22:34:34.598Z,6.77
2023-01-17T22:37:19.623Z,7.32
2023-01-17T22:40:05.848Z,7.80
2023-01-17T22:42:50.831Z,8.23
2023-01-17T22:45:36.405Z,7.40
2023-01-17T22:48:21.547Z,6.07
2023-01-17T22:51:12.150Z,7.75
2023-01-17T22:54:00.338Z,7.85
2023-01-17T22:56:45.911Z,7.85
2023-01-17T22:59:34.065Z,7.35
2023-01-17T23:02:19.474Z,7.23
2023-01-17T23:05:04.858Z,7.78
2023-01-17T23:07:50.483Z,6.25
2023-01-17T23:10:54.275Z,7.18
2023-01-17T23:13:39.669Z,6.50
2023-01-17T23:16:43.967Z,6.33
2023-01-17T23:19:32.191Z,6.95
2023-01-17T23:22:23.220Z,7.40
2023-01-17T23:25:11.177Z,6.20
2023-01-17T23:28:11.491Z,6.60
2023-01-17T23:31:03.292Z,7.00
2023-01-17T23:33:49.114Z,6.40
2023-01-17T23:36:34.681Z,7.53
2023-01-17T23:39:20.186Z,6.15
2023-01-17T23:42:24.536Z,6.10
2023-01-17T23:45:10.377Z,6.53
2023-01-17T23:47:56.022Z,5.57
2023-01-17T23:50:44.394Z,6.15
2023-01-17T23:53:29.711Z,7.03
2023-01-17T23:56:23.586Z,8.73
2023-01-17T23:59:09.023Z,5.93
